Time;durP1;ratioP1;P1;durP2;ratioP2;P2;SDS_P1;SDS_P2;PMS_P1;PMS_P2;Temp;Humidity;BMP_temperature;BMP_pressure;BME280_temperature;BME280_humidity;BME280_pressure;Samples;Min_cycle;Max_cycle;Signal;HPM_P1;HPM_P2
2021/07/02 00:00:23;;;;;;;;;;;;;;;22.68;62.78;100883.72;2054345;28;3836;-81
2021/07/02 00:01:50;;;;;;;;;;;;;;;22.68;62.86;100878.00;2052724;28;4231;-82
2021/07/02 00:03:17;;;;;;;;;;;;;;;22.67;62.89;100880.03;2053686;28;3781;-81
2021/07/02 00:04:44;;;;;;;;;;;;;;;22.67;62.89;100884.94;2052232;28;4080;-82
2021/07/02 00:06:11;;;;;;;;;;;;;;;22.67;62.89;100888.59;2053447;28;4009;-81
2021/07/02 00:07:38;;;;;;;;;;;;;;;22.67;62.94;100885.75;2053148;28;3807;-83
2021/07/02 00:09:04;;;;;;;;;;;;;;;22.67;62.97;100876.38;2053344;28;4050;-81
2021/07/02 00:10:31;;;;;;;;;;;;;;;22.66;62.85;100881.25;2053404;28;3851;-81
2021/07/02 00:11:58;;;;;;;;;;;;;;;22.66;62.96;100878.41;2052408;28;4063;-87
2021/07/02 00:13:25;;;;;;;;;;;;;;;22.67;62.96;100877.19;2054276;28;3838;-87
2021/07/02 00:14:52;;;;;;;;;;;;;;;22.66;62.95;100872.69;2054253;28;4041;-87
2021/07/02 00:16:19;;;;;;;;;;;;;;;22.66;62.98;100872.69;2053229;28;3907;-87
2021/07/02 00:17:46;;;;;;;;;;;;;;;22.66;62.89;100872.69;2052817;28;4219;-84
2021/07/02 00:19:12;;;;;;;;;;;;;;;22.66;63.00;100871.84;2053042;28;3861;-90
2021/07/02 00:23:04;;;;;;;;;;;;;;;22.66;63.04;100884.09;2043562;28;4047;-85
2021/07/02 00:24:31;;;;;;;;;;;;;;;22.66;62.92;100877.53;2053495;28;3793;-86
2021/07/02 00:25:57;;;;;;;;;;;;;;;22.66;63.01;100877.53;2053496;28;4222;-84
2021/07/02 00:27:23;;;;;;;;;;;;;;;22.66;62.97;100886.09;2053472;28;4067;-87
2021/07/02 00:28:50;;;;;;;;;;;;;;;22.65;62.98;100876.72;2054871;28;4207;-88
2021/07/02 00:30:17;;;;;;;;;;;;;;;22.66;62.95;100877.53;2055239;28;3879;-89
2021/07/02 00:31:44;;;;;;;;;;;;;;;22.65;62.94;100875.91;2038159;28;3978;-85
2021/07/02 00:33:11;;;;;;;;;;;;;;;22.65;62.99;100871.00;2057466;28;3877;-85
2021/07/02 00:34:38;;;;;;;;;;;;;;;22.66;62.94;100877.53;2053919;28;3821;-88
2021/07/02 00:36:04;;;;;;;;;;;;;;;22.65;62.97;100868.16;2059217;28;4073;-87
2021/07/02 00:37:30;;;;;;;;;;;;;;;22.65;63.04;100876.72;2062507;28;3842;-89
2021/07/02 00:39:00;;;;;;;;;;;;;;;22.65;63.04;100873.88;2058062;28;4232;-92
2021/07/02 00:40:41;;;;;;;;;;;;;;;22.65;63.04;100873.88;2068610;28;3838;-90
2021/07/02 00:42:22;;;;;;;;;;;;;;;22.65;63.14;100879.56;2059570;28;3907;-91
2021/07/02 00:43:59;;;;;;;;;;;;;;;22.65;63.14;100875.91;2036936;28;4226;-84
2021/07/02 00:45:26;;;;;;;;;;;;;;;22.66;63.01;100884.09;2038279;28;3968;-91
2021/07/02 00:47:12;;;;;;;;;;;;;;;22.63;63.07;100878.28;2053343;28;1516;-94
2021/07/02 00:48:57;;;;;;;;;;;;;;;22.66;63.05;100886.09;2045610;28;3982;-91
2021/07/02 00:50:39;;;;;;;;;;;;;;;22.65;63.08;100888.13;2052788;28;3820;-93
2021/07/02 00:52:23;;;;;;;;;;;;;;;22.65;63.17;100881.59;2035807;28;3997;-90
2021/07/02 00:53:49;;;;;;;;;;;;;;;22.65;63.15;100881.59;2055818;28;4044;-94
2021/07/02 00:55:40;;;;;;;;;;;;;;;22.64;63.16;100877.91;2024994;23;978525;-29
2021/07/02 00:57:06;;;;;;;;;;;;;;;22.65;63.24;100879.56;2050941;28;4256;-29
2021/07/02 00:58:33;;;;;;;;;;;;;;;22.64;63.28;100880.78;2049904;28;4103;-32
2021/07/02 00:59:59;;;;;;;;;;;;;;;22.65;63.23;100878.75;2050600;28;4218;-31
2021/07/02 01:01:26;;;;;;;;;;;;;;;22.64;63.18;100883.63;2050899;28;3947;-30
2021/07/02 01:02:53;;;;;;;;;;;;;;;22.65;63.30;100875.91;2050205;28;4066;-30
2021/07/02 01:04:20;;;;;;;;;;;;;;;22.64;63.22;100875.06;2052600;28;3959;-29
2021/07/02 01:05:45;;;;;;;;;;;;;;;22.65;63.25;100873.03;2050824;28;4221;-29
2021/07/02 01:07:12;;;;;;;;;;;;;;;22.64;63.29;100872.22;2051919;28;3920;-29
2021/07/02 01:08:39;;;;;;;;;;;;;;;22.64;63.21;100880.78;2049435;28;3967;-30
2021/07/02 01:10:05;;;;;;;;;;;;;;;22.65;63.33;100867.34;2052026;28;4197;-30
2021/07/02 01:11:31;;;;;;;;;;;;;;;22.64;63.19;100872.22;2051466;28;3981;-30
2021/07/02 01:12:58;;;;;;;;;;;;;;;22.64;63.33;100874.25;2049911;28;5244;-30
2021/07/02 01:14:25;;;;;;;;;;;;;;;22.65;63.27;100870.19;2052714;28;3913;-29
2021/07/02 01:15:51;;;;;;;;;;;;;;;22.64;63.24;100875.06;2050863;28;4202;-32
2021/07/02 01:17:19;;;;;;;;;;;;;;;22.65;63.26;100871.00;2051559;28;3905;-32
2021/07/02 01:18:46;;;;;;;;;;;;;;;22.65;63.28;100870.19;2050099;28;4254;-29
2021/07/02 01:20:12;;;;;;;;;;;;;;;22.64;63.31;100869.38;2051126;28;3985;-28
2021/07/02 01:21:39;;;;;;;;;;;;;;;22.64;63.34;100868.53;2051004;28;3881;-32
2021/07/02 01:23:05;;;;;;;;;;;;;;;22.63;63.38;100879.13;2050260;28;4073;-29
2021/07/02 01:24:32;;;;;;;;;;;;;;;22.64;63.50;100879.94;2051527;28;4230;-31
2021/07/02 01:25:58;;;;;;;;;;;;;;;22.64;63.31;100875.06;2051251;28;4054;-31
2021/07/02 01:27:24;;;;;;;;;;;;;;;22.64;63.30;100875.06;2048400;28;3954;-31
2021/07/02 01:28:50;;;;;;;;;;;;;;;22.64;63.38;100868.53;2049417;28;4056;-30
2021/07/02 01:30:16;;;;;;;;;;;;;;;22.64;63.30;100868.53;2051350;28;4108;-30
2021/07/02 01:31:43;;;;;;;;;;;;;;;22.63;63.33;100873.44;2048685;28;4229;-32
2021/07/02 01:33:10;;;;;;;;;;;;;;;22.64;63.37;100875.06;2051614;28;4020;-32
2021/07/02 01:34:37;;;;;;;;;;;;;;;22.64;63.49;100871.41;2051029;28;3915;-30
2021/07/02 01:36:03;;;;;;;;;;;;;;;22.63;63.45;100873.44;2050961;28;4062;-29
2021/07/02 01:37:30;;;;;;;;;;;;;;;22.62;63.35;100871.75;2051836;28;3971;-33
2021/07/02 01:38:55;;;;;;;;;;;;;;;22.62;63.43;100862.38;2051029;28;4179;-30
2021/07/02 01:40:21;;;;;;;;;;;;;;;22.62;63.36;100868.06;2051983;28;3979;-30
2021/07/02 01:41:47;;;;;;;;;;;;;;;22.63;63.38;100872.56;2051656;28;4226;-30
2021/07/02 01:43:14;;;;;;;;;;;;;;;22.62;63.45;100866.03;2050246;28;4174;-29
2021/07/02 01:44:41;;;;;;;;;;;;;;;22.63;63.47;100870.56;2051948;28;5479;-30
2021/07/02 01:46:07;;;;;;;;;;;;;;;22.63;63.38;100872.56;2050315;28;4280;-29
2021/07/02 01:47:34;;;;;;;;;;;;;;;22.62;63.54;100871.75;2051583;28;3940;-30
2021/07/02 01:49:00;;;;;;;;;;;;;;;22.62;63.56;100871.75;2050854;28;4233;-31
2021/07/02 01:50:26;;;;;;;;;;;;;;;22.62;63.57;100876.63;2051156;28;3878;-31
2021/07/02 01:51:53;;;;;;;;;;;;;;;22.62;63.54;100874.59;2051523;28;4089;-31
2021/07/02 01:53:18;;;;;;;;;;;;;;;22.62;63.52;100871.75;2052400;28;3926;-31
2021/07/02 01:54:45;;;;;;;;;;;;;;;22.62;63.51;100870.91;2050792;28;4086;-28
2021/07/02 01:56:11;;;;;;;;;;;;;;;22.62;63.51;100874.59;2051578;28;3970;-32
2021/07/02 01:57:38;;;;;;;;;;;;;;;22.62;63.36;100871.75;2052246;28;3977;-32
2021/07/02 01:59:05;;;;;;;;;;;;;;;22.62;63.43;100877.44;2050619;28;4248;-31
2021/07/02 02:00:31;;;;;;;;;;;;;;;22.62;63.51;100874.59;2050583;28;3911;-29
2021/07/02 02:01:56;;;;;;;;;;;;;;;22.62;63.51;100874.59;2051005;28;4058;-31
2021/07/02 02:03:23;;;;;;;;;;;;;;;22.62;63.38;100873.78;2052182;28;3889;-31
2021/07/02 02:04:50;;;;;;;;;;;;;;;22.62;63.40;100871.75;2050508;28;4243;-30
2021/07/02 02:06:17;;;;;;;;;;;;;;;22.62;63.38;100873.78;2051742;28;3906;-29
2021/07/02 02:07:44;;;;;;;;;;;;;;;22.62;63.48;100868.06;2052049;28;4215;-30
2021/07/02 02:09:10;;;;;;;;;;;;;;;22.62;63.41;100868.06;2051794;28;3927;-30
2021/07/02 02:10:37;;;;;;;;;;;;;;;22.62;63.24;100873.78;2048333;28;4904;-30
2021/07/02 02:12:03;;;;;;;;;;;;;;;22.62;63.48;100870.91;2051330;28;4246;-30
2021/07/02 02:13:30;;;;;;;;;;;;;;;22.62;63.57;100874.59;2051750;28;3979;-30
2021/07/02 02:14:57;;;;;;;;;;;;;;;22.61;63.42;100875.81;2050985;28;4217;-31
2021/07/02 02:16:24;;;;;;;;;;;;;;;22.60;63.57;100868.41;2051522;28;3947;-31
2021/07/02 02:17:51;;;;;;;;;;;;;;;22.61;63.58;100870.09;2051040;28;4773;-30
2021/07/02 02:19:18;;;;;;;;;;;;;;;22.62;63.43;100876.63;2050103;28;4065;-29
2021/07/02 02:20:44;;;;;;;;;;;;;;;22.61;63.55;100869.28;2048250;28;4100;-30
2021/07/02 02:22:11;;;;;;;;;;;;;;;22.61;63.46;100877.84;2051285;28;3984;-30
2021/07/02 02:23:36;;;;;;;;;;;;;;;22.61;63.57;100875.81;2050786;28;3926;-30
2021/07/02 02:25:02;;;;;;;;;;;;;;;22.61;63.38;100881.50;2050608;28;4068;-30
2021/07/02 02:26:28;;;;;;;;;;;;;;;22.60;63.48;100868.41;2050834;28;3954;-29
2021/07/02 02:27:55;;;;;;;;;;;;;;;22.61;63.55;100872.94;2051257;28;4218;-29
2021/07/02 02:29:21;;;;;;;;;;;;;;;22.61;63.37;100880.69;2050968;28;4016;-31
2021/07/02 02:30:48;;;;;;;;;;;;;;;22.61;63.59;100880.69;2047496;28;4398;-29
2021/07/02 02:32:15;;;;;;;;;;;;;;;22.60;63.56;100879.00;2050671;28;4017;-31
2021/07/02 02:33:42;;;;;;;;;;;;;;;22.60;63.50;100888.38;2052157;28;3981;-37
2021/07/02 02:35:08;;;;;;;;;;;;;;;22.60;63.51;100891.22;2049806;28;4069;-31
2021/07/02 02:36:35;;;;;;;;;;;;;;;22.61;63.53;100886.38;2050667;28;3895;-34
2021/07/02 02:38:02;;;;;;;;;;;;;;;22.60;63.65;100891.22;2050785;28;4398;-31
2021/07/02 02:39:29;;;;;;;;;;;;;;;22.61;63.54;100892.09;2050449;28;3986;-32
2021/07/02 02:40:55;;;;;;;;;;;;;;;22.61;63.50;100900.63;2048943;28;4913;-32
2021/07/02 02:42:22;;;;;;;;;;;;;;;22.60;63.57;100896.94;2051715;28;3890;-30
2021/07/02 02:43:49;;;;;;;;;;;;;;;22.60;63.56;100890.41;2048895;28;4251;-33
2021/07/02 02:45:16;;;;;;;;;;;;;;;22.61;63.58;100892.09;2050739;28;3966;-34
2021/07/02 02:46:43;;;;;;;;;;;;;;;22.61;63.74;100904.31;2049030;28;4255;-37
2021/07/02 02:48:10;;;;;;;;;;;;;;;22.58;63.69;100899.34;2052414;28;3994;-32
2021/07/02 02:49:37;;;;;;;;;;;;;;;22.59;63.64;100901.00;2050078;28;3972;-33
2021/07/02 02:51:04;;;;;;;;;;;;;;;22.59;63.63;100903.84;2050026;28;4258;-30
2021/07/02 02:52:29;;;;;;;;;;;;;;;22.58;63.74;100909.94;2051685;28;3959;-37
2021/07/02 02:53:56;;;;;;;;;;;;;;;22.58;63.62;100910.75;2051058;28;4044;-33
2021/07/02 02:55:23;;;;;;;;;;;;;;;22.59;63.57;100912.41;2051121;28;3963;-31
2021/07/02 02:57:07;;;;;;;;;;;;;;;22.59;63.59;100911.56;2048069;28;4225;-32
2021/07/02 02:58:34;;;;;;;;;;;;;;;22.60;63.56;100901.81;2051802;28;3955;-31
2021/07/02 03:00:00;;;;;;;;;;;;;;;22.58;63.51;100899.34;2050063;28;4227;-31
2021/07/02 03:01:27;;;;;;;;;;;;;;;22.58;63.56;100905.03;2050763;28;3955;-33
2021/07/02 03:02:54;;;;;;;;;;;;;;;22.59;63.60;100905.88;2050640;28;4207;-30
2021/07/02 03:04:29;;;;;;;;;;;;;;;22.58;63.62;100901.38;2050174;28;3939;-31
2021/07/02 03:05:56;;;;;;;;;;;;;;;22.57;63.65;100903.38;2049992;28;4072;-35
2021/07/02 03:07:22;;;;;;;;;;;;;;;22.56;63.73;100904.56;2049111;28;4008;-31
2021/07/02 03:08:49;;;;;;;;;;;;;;;22.56;63.73;100904.56;2050057;28;4026;-37
2021/07/02 03:10:15;;;;;;;;;;;;;;;22.57;63.67;100905.41;2049231;28;3932;-31
2021/07/02 03:11:44;;;;;;;;;;;;;;;22.57;63.62;100909.06;2051828;28;3882;-32
2021/07/02 03:13:11;;;;;;;;;;;;;;;22.58;63.54;100907.06;2051547;28;4229;-31
2021/07/02 03:14:37;;;;;;;;;;;;;;;22.57;63.67;100909.06;2050669;28;3874;-30
2021/07/02 03:16:04;;;;;;;;;;;;;;;22.57;63.63;100906.22;2051010;28;4080;-33
2021/07/02 03:17:31;;;;;;;;;;;;;;;22.57;63.58;100908.25;2049677;28;3982;-40
2021/07/02 03:19:01;;;;;;;;;;;;;;;22.56;63.62;100907.41;2051001;28;4269;-33
2021/07/02 03:20:27;;;;;;;;;;;;;;;22.57;63.58;100902.53;2051199;28;3942;-30
2021/07/02 03:21:54;;;;;;;;;;;;;;;22.56;63.78;100904.56;2048772;28;4245;-31
2021/07/02 03:23:21;;;;;;;;;;;;;;;22.54;63.67;100901.25;2051539;28;3993;-33
2021/07/02 03:24:48;;;;;;;;;;;;;;;22.55;63.57;100905.78;2048719;28;4036;-30
2021/07/02 03:26:17;;;;;;;;;;;;;;;22.55;63.55;100914.31;2050141;28;4000;-31
2021/07/02 03:27:44;;;;;;;;;;;;;;;22.57;63.66;100909.06;2050788;28;4253;-30
2021/07/02 03:29:10;;;;;;;;;;;;;;;22.56;63.48;100915.97;2049915;28;4148;-35
2021/07/02 03:30:37;;;;;;;;;;;;;;;22.55;63.81;100908.63;2050481;28;4072;-29
2021/07/02 03:32:03;;;;;;;;;;;;;;;22.56;63.54;100915.16;2051344;28;4234;-30
2021/07/02 03:33:29;;;;;;;;;;;;;;;22.55;63.63;100908.63;2049426;28;3917;-33
2021/07/02 03:34:55;;;;;;;;;;;;;;;22.56;63.57;100912.31;2050741;28;4253;-30
2021/07/02 03:36:22;;;;;;;;;;;;;;;22.55;63.59;100908.63;2051383;28;3915;-30
2021/07/02 03:37:49;;;;;;;;;;;;;;;22.56;63.58;100907.41;2050786;28;4262;-30
2021/07/02 03:39:15;;;;;;;;;;;;;;;22.57;63.59;100911.09;2051015;28;4108;-30
2021/07/02 03:40:41;;;;;;;;;;;;;;;22.57;63.62;100911.09;2051166;28;3975;-30
2021/07/02 03:42:08;;;;;;;;;;;;;;;22.55;63.67;100904.91;2050655;28;4247;-33
2021/07/02 03:43:34;;;;;;;;;;;;;;;22.55;63.47;100911.47;2050460;28;3955;-30
2021/07/02 03:45:01;;;;;;;;;;;;;;;22.55;63.63;100917.19;2050524;28;4769;-35
2021/07/02 03:46:26;;;;;;;;;;;;;;;22.54;63.65;100911.81;2049936;28;4131;-32
2021/07/02 03:47:54;;;;;;;;;;;;;;;22.55;63.58;100917.19;2047286;28;4283;-33
2021/07/02 03:49:21;;;;;;;;;;;;;;;22.55;63.58;100922.03;2049365;28;3919;-30
2021/07/02 03:50:47;;;;;;;;;;;;;;;22.54;63.71;100918.34;2050628;28;4237;-31
2021/07/02 03:52:13;;;;;;;;;;;;;;;22.55;63.66;100928.59;2048843;28;4073;-30
2021/07/02 03:53:39;;;;;;;;;;;;;;;22.56;63.66;100918.81;2050039;28;3898;-30
2021/07/02 03:55:05;;;;;;;;;;;;;;;22.55;63.69;100928.59;2050027;28;4270;-33
2021/07/02 03:56:32;;;;;;;;;;;;;;;22.55;63.58;100925.72;2051053;28;5168;-32
2021/07/02 03:57:59;;;;;;;;;;;;;;;22.55;63.60;100922.03;2050768;28;4038;-31
2021/07/02 03:59:26;;;;;;;;;;;;;;;22.54;63.66;100924.06;2051752;28;3993;-32
2021/07/02 04:00:52;;;;;;;;;;;;;;;22.53;63.62;100922.41;2049835;28;4239;-31
2021/07/02 04:02:19;;;;;;;;;;;;;;;22.54;63.55;100923.22;2050213;28;4092;-30
2021/07/02 04:03:46;;;;;;;;;;;;;;;22.56;63.66;100923.69;2049826;28;4238;-30
2021/07/02 04:05:13;;;;;;;;;;;;;;;22.54;63.67;100928.94;2050559;28;3922;-30
2021/07/02 04:06:41;;;;;;;;;;;;;;;22.55;63.59;100936.28;2049180;28;3914;-30
2021/07/02 04:08:08;;;;;;;;;;;;;;;22.53;63.76;100930.97;2048216;28;4253;-30
2021/07/02 04:09:34;;;;;;;;;;;;;;;22.53;63.58;100927.28;2049672;28;3948;-31
2021/07/02 04:11:01;;;;;;;;;;;;;;;22.53;63.60;100936.66;2051466;28;5485;-30
2021/07/02 04:12:28;;;;;;;;;;;;;;;22.54;63.63;100931.78;2049970;28;3907;-30
2021/07/02 04:13:54;;;;;;;;;;;;;;;22.54;63.72;100934.63;2051020;28;4265;-34
2021/07/02 04:15:20;;;;;;;;;;;;;;;22.53;63.61;100942.38;2052061;28;4128;-31
2021/07/02 04:16:47;;;;;;;;;;;;;;;22.54;63.69;100938.31;2050239;28;4232;-32
2021/07/02 04:18:14;;;;;;;;;;;;;;;22.55;63.60;100940.00;2049537;28;4923;-30
2021/07/02 04:19:41;;;;;;;;;;;;;;;22.54;63.67;100940.34;2050401;28;3939;-30
2021/07/02 04:21:07;;;;;;;;;;;;;;;22.53;63.62;100941.53;2048187;28;5131;-34
2021/07/02 04:22:33;;;;;;;;;;;;;;;22.53;63.71;100945.22;2052356;28;3939;-33
2021/07/02 04:24:00;;;;;;;;;;;;;;;22.54;63.64;100940.34;2052463;28;4052;-30
2021/07/02 04:25:26;;;;;;;;;;;;;;;22.53;63.71;100948.06;2051709;28;3989;-36
2021/07/02 04:26:53;;;;;;;;;;;;;;;22.53;63.68;100938.69;2050945;28;4507;-30
2021/07/02 04:28:20;;;;;;;;;;;;;;;22.54;63.63;100941.16;2052363;28;4017;-30
2021/07/02 04:29:47;;;;;;;;;;;;;;;22.55;63.58;100940.00;2050858;28;4231;-30
2021/07/02 04:31:13;;;;;;;;;;;;;;;22.53;63.58;100942.38;2051548;28;4118;-30
2021/07/02 04:32:40;;;;;;;;;;;;;;;22.53;63.55;100933.81;2051975;28;4059;-36
2021/07/02 04:34:07;;;;;;;;;;;;;;;22.55;63.59;100942.84;2051338;28;4230;-30
2021/07/02 04:35:34;;;;;;;;;;;;;;;22.54;63.67;100943.19;2051924;28;3935;-30
2021/07/02 04:37:00;;;;;;;;;;;;;;;22.55;63.52;100951.41;2049799;28;4230;-33
2021/07/02 04:38:33;;;;;;;;;;;;;;;22.53;63.65;100945.22;2051152;28;3928;-30
2021/07/02 04:40:00;;;;;;;;;;;;;;;22.54;63.83;100948.91;2050885;28;4070;-30
2021/07/02 04:41:26;;;;;;;;;;;;;;;22.53;63.80;100945.22;2051808;28;3890;-30
2021/07/02 04:42:52;;;;;;;;;;;;;;;22.53;63.82;100950.91;2051562;28;4041;-30
2021/07/02 04:44:19;;;;;;;;;;;;;;;22.53;63.79;100947.25;2052957;28;3910;-30
2021/07/02 04:45:45;;;;;;;;;;;;;;;22.53;63.74;100950.91;2049185;28;4027;-31
2021/07/02 04:47:12;;;;;;;;;;;;;;;22.53;63.75;100947.25;2052587;28;3949;-30
2021/07/02 04:48:38;;;;;;;;;;;;;;;22.51;63.83;100949.63;2051494;28;3940;-30
2021/07/02 04:50:04;;;;;;;;;;;;;;;22.51;63.88;100958.16;2051218;28;4060;-30
2021/07/02 04:51:30;;;;;;;;;;;;;;;22.51;63.79;100956.16;2052434;28;3948;-35
2021/07/02 04:52:57;;;;;;;;;;;;;;;22.51;63.92;100953.28;2050728;28;4183;-30
2021/07/02 04:54:24;;;;;;;;;;;;;;;22.51;63.58;100953.28;2051329;28;3942;-30
2021/07/02 04:55:50;;;;;;;;;;;;;;;22.52;63.74;100959.81;2052292;28;4092;-36
2021/07/02 04:57:16;;;;;;;;;;;;;;;22.52;63.81;100949.25;2050800;28;3928;-30
2021/07/02 04:58:43;;;;;;;;;;;;;;;22.52;63.71;100957.78;2050768;28;4189;-31
2021/07/02 05:00:10;;;;;;;;;;;;;;;22.51;63.80;100953.28;2051401;28;3887;-31
2021/07/02 05:01:36;;;;;;;;;;;;;;;22.52;63.67;100960.66;2051939;28;3950;-30
2021/07/02 05:03:04;;;;;;;;;;;;;;;22.51;63.80;100956.16;2050894;28;4214;-30
2021/07/02 05:04:30;;;;;;;;;;;;;;;22.52;63.66;100956.97;2051332;28;3979;-30
2021/07/02 05:05:56;;;;;;;;;;;;;;;22.53;63.74;100958.66;2052353;28;4199;-32
2021/07/02 05:07:22;;;;;;;;;;;;;;;22.52;63.75;100957.78;2051010;28;3946;-30
2021/07/02 05:08:49;;;;;;;;;;;;;;;22.52;63.56;100963.50;2050397;28;4072;-31
2021/07/02 05:10:16;;;;;;;;;;;;;;;22.52;63.59;100954.94;2051375;28;3967;-30
2021/07/02 05:11:43;;;;;;;;;;;;;;;22.52;63.76;100957.78;2050497;28;4191;-30
2021/07/02 05:13:10;;;;;;;;;;;;;;;22.53;63.76;100952.94;2052285;28;3939;-30
2021/07/02 05:14:37;;;;;;;;;;;;;;;22.53;63.82;100958.66;2051832;28;3922;-30
2021/07/02 05:16:07;;;;;;;;;;;;;;;22.53;63.88;100961.50;2051431;28;4251;-31
2021/07/02 05:17:34;;;;;;;;;;;;;;;22.52;63.81;100963.50;2052194;28;3969;-30
2021/07/02 05:19:00;;;;;;;;;;;;;;;22.53;63.81;100965.19;2050813;28;4258;-30
2021/07/02 05:20:26;;;;;;;;;;;;;;;22.52;63.85;100966.34;2052482;28;3982;-30
2021/07/02 05:21:53;;;;;;;;;;;;;;;22.52;63.78;100972.06;2051422;28;4277;-30
2021/07/02 05:23:20;;;;;;;;;;;;;;;22.52;63.84;100962.66;2051417;28;4855;-30
2021/07/02 05:24:47;;;;;;;;;;;;;;;22.53;63.74;100972.91;2048683;28;4036;-30
2021/07/02 05:26:14;;;;;;;;;;;;;;;22.52;63.83;100972.06;2049685;28;3945;-32
2021/07/02 05:27:40;;;;;;;;;;;;;;;22.51;63.86;100973.25;2049811;28;3897;-30
2021/07/02 05:29:06;;;;;;;;;;;;;;;22.52;63.88;100969.19;2047875;28;4076;-33
2021/07/02 05:30:33;;;;;;;;;;;;;;;22.52;63.88;100972.06;2051064;28;3968;-34
2021/07/02 05:32:00;;;;;;;;;;;;;;;22.52;63.83;100968.38;2050892;28;4104;-30
2021/07/02 05:33:27;;;;;;;;;;;;;;;22.51;63.89;100967.56;2050191;28;4111;-32
2021/07/02 05:34:53;;;;;;;;;;;;;;;22.51;63.99;100976.09;2051623;28;4243;-31
2021/07/02 05:36:21;;;;;;;;;;;;;;;22.52;64.00;100974.91;2050479;28;4002;-31
2021/07/02 05:37:48;;;;;;;;;;;;;;;22.52;64.05;100974.06;2048363;28;4221;-31
2021/07/02 05:39:15;;;;;;;;;;;;;;;22.52;63.92;100976.94;2051715;28;4027;-30
2021/07/02 05:40:41;;;;;;;;;;;;;;;22.51;64.06;100973.25;2052172;28;3958;-30
2021/07/02 05:42:08;;;;;;;;;;;;;;;22.51;63.90;100973.25;2051844;28;4202;-32
2021/07/02 05:43:34;;;;;;;;;;;;;;;22.52;64.10;100974.91;2050677;28;3907;-30
2021/07/02 05:45:00;;;;;;;;;;;;;;;22.51;64.03;100973.25;2052081;28;4014;-33
2021/07/02 05:46:27;;;;;;;;;;;;;;;22.50;64.15;100977.31;2051660;28;4124;-30
2021/07/02 05:47:59;;;;;;;;;;;;;;;22.50;64.11;100983.00;2049527;28;4227;-35
2021/07/02 05:49:26;;;;;;;;;;;;;;;22.50;64.03;100976.47;2051923;28;3924;-30
2021/07/02 05:50:52;;;;;;;;;;;;;;;22.50;64.22;100983.00;2051014;28;4217;-30
2021/07/02 05:52:19;;;;;;;;;;;;;;;22.49;64.15;100981.31;2050674;28;3943;-30
2021/07/02 05:53:45;;;;;;;;;;;;;;;22.50;64.25;100987.88;2050970;28;4097;-32
2021/07/02 05:55:12;;;;;;;;;;;;;;;22.49;64.11;100987.03;2048325;28;3969;-29
2021/07/02 05:56:39;;;;;;;;;;;;;;;22.50;64.13;100999.28;2046734;28;4041;-31
2021/07/02 05:58:05;;;;;;;;;;;;;;;22.49;64.20;100989.88;2046694;28;5152;-31
2021/07/02 05:59:35;;;;;;;;;;;;;;;22.48;64.15;100993.94;2047754;28;4172;-30
2021/07/02 06:01:01;;;;;;;;;;;;;;;22.48;64.29;100996.78;2047760;28;4238;-30
2021/07/02 06:02:27;;;;;;;;;;;;;;;22.48;64.09;100996.78;2051529;28;4088;-30
2021/07/02 06:03:53;;;;;;;;;;;;;;;22.48;64.18;100995.97;2050751;28;4069;-30
2021/07/02 06:05:20;;;;;;;;;;;;;;;22.49;64.14;100997.59;2052063;28;4001;-30
2021/07/02 06:06:48;;;;;;;;;;;;;;;22.48;64.27;100991.09;2051399;28;4039;-30
2021/07/02 06:08:14;;;;;;;;;;;;;;;22.46;64.34;100991.44;2051762;28;3962;-30
2021/07/02 06:09:41;;;;;;;;;;;;;;;22.47;64.33;101000.84;2049514;28;3909;-32
2021/07/02 06:11:07;;;;;;;;;;;;;;;22.46;64.36;100996.31;2051307;28;4246;-33
2021/07/02 06:12:33;;;;;;;;;;;;;;;22.47;64.20;101000.84;2052214;28;3950;-32
2021/07/02 06:13:59;;;;;;;;;;;;;;;22.46;64.14;100999.97;2049525;28;4080;-30
2021/07/02 06:15:25;;;;;;;;;;;;;;;22.48;64.15;100995.97;2051053;28;3926;-30
2021/07/02 06:16:52;;;;;;;;;;;;;;;22.47;64.23;100998.00;2049990;28;4244;-30
2021/07/02 06:18:19;;;;;;;;;;;;;;;22.48;64.04;100998.81;2051763;28;3930;-32
2021/07/02 06:19:45;;;;;;;;;;;;;;;22.48;64.24;101001.66;2049285;28;4086;-30
2021/07/02 06:21:12;;;;;;;;;;;;;;;22.48;64.16;101007.38;2049328;28;4014;-32
2021/07/02 06:22:38;;;;;;;;;;;;;;;22.47;64.17;101003.69;2049716;28;3945;-40
2021/07/02 06:24:05;;;;;;;;;;;;;;;22.46;64.24;101004.84;2047755;28;4236;-36
2021/07/02 06:25:31;;;;;;;;;;;;;;;22.48;64.15;100998.81;2049583;28;4008;-30
2021/07/02 06:26:58;;;;;;;;;;;;;;;22.47;64.24;101006.53;2050888;28;4452;-30
2021/07/02 06:28:27;;;;;;;;;;;;;;;22.48;64.24;100999.63;2043548;28;3994;-33
2021/07/02 06:29:53;;;;;;;;;;;;;;;22.46;64.25;101004.84;2043715;28;6511;-30
2021/07/02 06:31:19;;;;;;;;;;;;;;;22.46;64.25;101005.69;2047437;28;4009;-37
2021/07/02 06:32:46;;;;;;;;;;;;;;;22.47;64.26;101003.69;2051680;28;4064;-34
2021/07/02 06:34:13;;;;;;;;;;;;;;;22.47;64.29;101012.25;2050343;28;3970;-35
2021/07/02 06:35:39;;;;;;;;;;;;;;;22.47;64.27;101009.38;2048625;28;4108;-31
2021/07/02 06:37:05;;;;;;;;;;;;;;;22.47;64.21;101015.09;2051683;28;4070;-30
2021/07/02 06:38:32;;;;;;;;;;;;;;;22.48;64.25;101010.22;2048165;28;3906;-31
2021/07/02 06:40:02;;;;;;;;;;;;;;;22.47;64.30;101015.09;2049056;28;4053;-30
2021/07/02 06:41:28;;;;;;;;;;;;;;;22.47;64.22;101012.25;2051123;28;4021;-31
2021/07/02 06:42:54;;;;;;;;;;;;;;;22.47;64.23;101015.09;2048677;28;4137;-31
2021/07/02 06:44:22;;;;;;;;;;;;;;;22.46;64.19;101010.56;2050159;28;3931;-30
2021/07/02 06:45:49;;;;;;;;;;;;;;;22.46;64.21;101013.41;2048911;28;4278;-34
2021/07/02 06:47:15;;;;;;;;;;;;;;;22.46;64.19;101016.25;2050564;28;4058;-31
2021/07/02 06:48:41;;;;;;;;;;;;;;;22.46;64.20;101019.94;2049727;28;3826;-30
2021/07/02 06:50:08;;;;;;;;;;;;;;;22.45;64.32;101009.72;2047396;28;4304;-34
2021/07/02 06:51:34;;;;;;;;;;;;;;;22.46;64.52;101019.94;2051247;28;3926;-32
2021/07/02 06:53:02;;;;;;;;;;;;;;;22.46;64.14;101013.41;2050841;28;4208;-31
2021/07/02 06:54:29;;;;;;;;;;;;;;;22.46;64.25;101016.25;2047775;28;4013;-30
2021/07/02 06:55:55;;;;;;;;;;;;;;;22.46;64.25;101017.09;2048399;28;4250;-30
2021/07/02 06:57:23;;;;;;;;;;;;;;;22.46;63.99;101016.25;2048050;28;3933;-30
2021/07/02 06:58:51;;;;;;;;;;;;;;;22.45;64.23;101015.44;2050849;28;4214;-33
2021/07/02 07:00:18;;;;;;;;;;;;;;;22.45;64.36;101015.44;2045969;28;3941;-33
2021/07/02 07:01:44;;;;;;;;;;;;;;;22.45;64.17;101009.72;2048230;28;4052;-31
2021/07/02 07:03:11;;;;;;;;;;;;;;;22.46;64.28;101022.78;2046746;28;3951;-30
2021/07/02 07:04:37;;;;;;;;;;;;;;;22.46;64.26;101017.09;2050979;28;3972;-31
2021/07/02 07:06:04;;;;;;;;;;;;;;;22.46;64.42;101022.78;2045145;28;4252;-31
2021/07/02 07:07:30;;;;;;;;;;;;;;;22.46;64.35;101022.78;2049741;28;3936;-39
2021/07/02 07:08:56;;;;;;;;;;;;;;;22.46;64.17;101033.38;2048736;28;4228;-31
2021/07/02 07:10:23;;;;;;;;;;;;;;;22.47;64.26;101035.06;2048890;28;4028;-36
2021/07/02 07:11:50;;;;;;;;;;;;;;;22.47;64.15;101029.34;2049963;28;4242;-39
2021/07/02 07:13:17;;;;;;;;;;;;;;;22.47;64.18;101035.06;2051149;28;3981;-30
2021/07/02 07:14:44;;;;;;;;;;;;;;;22.46;64.08;101028.50;2049011;28;4245;-38
2021/07/02 07:16:12;;;;;;;;;;;;;;;22.48;64.31;101024.47;2050388;28;4283;-37
2021/07/02 07:17:38;;;;;;;;;;;;;;;22.46;64.15;101033.38;2050173;28;4119;-31
2021/07/02 07:19:05;;;;;;;;;;;;;;;22.47;64.13;101032.19;2051148;28;4222;-31
2021/07/02 07:20:31;;;;;;;;;;;;;;;22.47;64.12;101032.19;2051211;28;4048;-32
2021/07/02 07:21:57;;;;;;;;;;;;;;;22.48;64.09;101041.56;2049950;28;5026;-31
2021/07/02 07:23:23;;;;;;;;;;;;;;;22.48;64.04;101038.72;2051610;28;3954;-31
2021/07/02 07:24:49;;;;;;;;;;;;;;;22.46;64.12;101039.91;2049707;28;4394;-31
2021/07/02 07:26:16;;;;;;;;;;;;;;;22.47;63.98;101035.06;2051453;28;4106;-30
2021/07/02 07:27:43;;;;;;;;;;;;;;;22.48;64.02;101038.72;2048645;28;3976;-32
2021/07/02 07:29:09;;;;;;;;;;;;;;;22.48;63.88;101027.31;2049839;28;4005;-32
2021/07/02 07:30:36;;;;;;;;;;;;;;;22.48;63.98;101036.69;2050844;28;3965;-32
2021/07/02 07:32:02;;;;;;;;;;;;;;;22.48;63.94;101039.56;2045782;28;4475;-30
2021/07/02 07:33:30;;;;;;;;;;;;;;;22.48;63.84;101039.56;2050360;28;3927;-33
2021/07/02 07:35:02;;;;;;;;;;;;;;;22.48;63.78;101045.25;2049697;28;4297;-30
2021/07/02 07:36:30;;;;;;;;;;;;;;;22.48;63.84;101048.09;2049570;28;3930;-32